BTK6233 WAAA-WALL

Flight info

Callsign BTK6233
Flight time N/A
Altitude 32000
Route KOWAS
Aircraft A20N/M-SDE2E3FGHIRWXY/LB1

Departure

Time 2026-05-06 11:37
Airport Sultan Hasanuddin International Airport (WAAA)

Arrival

Time N/A
Airport Sultan Aji Muhammad Sulaiman Sepinggan International Airport (WALL)
Time Latitude Longitude Altitude Speed Heading
2026-05-06 11:19 -5.07709 119.54766 41 ft 0 kts 299°
2026-05-06 11:28 -5.07716 119.54778 39 ft 2 kts 299°
2026-05-06 11:28 -5.07723 119.54791 39 ft 2 kts 299°
2026-05-06 11:28 -5.07730 119.54804 39 ft 2 kts 284°
2026-05-06 11:29 -5.07732 119.54819 41 ft 2 kts 261°
2026-05-06 11:29 -5.07728 119.54833 41 ft 2 kts 238°
2026-05-06 11:29 -5.07718 119.54845 38 ft 2 kts 217°
2026-05-06 11:29 -5.07712 119.54850 38 ft 0 kts 217°
2026-05-06 11:32 -5.07725 119.54845 40 ft 3 kts 186°
2026-05-06 11:32 -5.07706 119.54883 40 ft 12 kts 28°
2026-05-06 11:32 -5.07616 119.54934 41 ft 16 kts 34°
2026-05-06 11:32 -5.07587 119.55026 41 ft 12 kts 113°
2026-05-06 11:33 -5.07628 119.55102 41 ft 11 kts 103°
2026-05-06 11:33 -5.07578 119.55156 41 ft 13 kts 27°
2026-05-06 11:33 -5.07488 119.55204 41 ft 16 kts 29°
2026-05-06 11:33 -5.07382 119.55266 41 ft 19 kts 30°
2026-05-06 11:34 -5.07264 119.55334 41 ft 20 kts 30°
2026-05-06 11:34 -5.07133 119.55409 41 ft 23 kts 30°
2026-05-06 11:34 -5.07000 119.55486 41 ft 22 kts 30°
2026-05-06 11:34 -5.06857 119.55567 40 ft 25 kts 29°
2026-05-06 11:35 -5.06762 119.55622 41 ft 12 kts 30°
2026-05-06 11:35 -5.06678 119.55673 41 ft 12 kts 39°
2026-05-06 11:35 -5.06679 119.55748 39 ft 13 kts 125°
2026-05-06 11:35 -5.06725 119.55803 41 ft 8 kts 130°
2026-05-06 11:36 -5.06783 119.55815 41 ft 11 kts 206°
2026-05-06 11:36 -5.06950 119.55717 39 ft 63 kts 210°
2026-05-06 11:36 -5.07564 119.55363 40 ft 136 kts 210°
2026-05-06 11:36 -5.08497 119.54819 423 ft 160 kts 211°
2026-05-06 11:37 -5.09479 119.54269 1209 ft 162 kts 208°
2026-05-06 11:37 -5.10497 119.53737 1949 ft 168 kts 207°
2026-05-06 11:37 -5.11563 119.53126 2528 ft 186 kts 211°
2026-05-06 11:37 -5.12493 119.52140 3057 ft 210 kts 244°
2026-05-06 11:38 -5.12739 119.50634 3592 ft 234 kts 279°
2026-05-06 11:38 -5.12088 119.49078 4204 ft 255 kts 310°
2026-05-06 11:38 -5.10711 119.47891 4791 ft 276 kts 330°
2026-05-06 11:38 -5.09019 119.46913 5711 ft 283 kts 333°
2026-05-06 11:39 -5.07301 119.45919 6705 ft 288 kts 330°
2026-05-06 11:39 -5.05603 119.44832 7659 ft 291 kts 328°
2026-05-06 11:39 -5.03924 119.43668 8612 ft 295 kts 326°
2026-05-06 11:39 -5.02254 119.42457 9565 ft 299 kts 325°
2026-05-06 11:40 -5.00565 119.41212 10375 ft 306 kts 324°
2026-05-06 11:40 -4.98784 119.39894 10737 ft 330 kts 324°
2026-05-06 11:40 -4.96870 119.38478 11041 ft 352 kts 324°
2026-05-06 11:40 -4.94872 119.37003 11747 ft 359 kts 324°
2026-05-06 11:41 -4.92855 119.35513 12561 ft 362 kts 324°
2026-05-06 11:41 -4.90810 119.34005 13346 ft 367 kts 324°
2026-05-06 11:41 -4.89444 119.32998 13821 ft 370 kts 324°
2026-05-06 11:41 -4.87359 119.31460 14514 ft 374 kts 324°
2026-05-06 11:42 -4.85254 119.29909 15204 ft 377 kts 324°
2026-05-06 11:42 -4.82405 119.27809 16114 ft 382 kts 324°
2026-05-06 11:42 -4.80980 119.26758 16551 ft 385 kts 324°
2026-05-06 11:42 -4.78813 119.25162 17197 ft 389 kts 324°
2026-05-06 11:43 -4.76623 119.23548 17875 ft 392 kts 324°
2026-05-06 11:43 -4.74414 119.21922 18455 ft 396 kts 324°
2026-05-06 11:43 -4.72185 119.20280 19008 ft 399 kts 324°
2026-05-06 11:44 -4.67673 119.16958 20093 ft 406 kts 324°
2026-05-06 11:44 -4.65386 119.15275 20622 ft 410 kts 324°
2026-05-06 11:44 -4.63078 119.13576 21131 ft 414 kts 324°
2026-05-06 11:44 -4.60749 119.11862 21656 ft 417 kts 324°
2026-05-06 11:45 -4.58398 119.10133 22171 ft 421 kts 324°
2026-05-06 11:45 -4.56029 119.08390 22673 ft 424 kts 324°
2026-05-06 11:45 -4.53639 119.06632 23169 ft 428 kts 324°
2026-05-06 11:45 -4.51231 119.04860 23608 ft 432 kts 324°
2026-05-06 11:46 -4.48800 119.03072 24033 ft 434 kts 324°
2026-05-06 11:46 -4.46355 119.01275 24439 ft 437 kts 324°
2026-05-06 11:46 -4.43893 118.99465 24833 ft 441 kts 324°
2026-05-06 11:46 -4.41414 118.97643 25241 ft 443 kts 324°
2026-05-06 11:47 -4.38919 118.95809 25630 ft 446 kts 324°
2026-05-06 11:47 -4.36408 118.93963 26022 ft 449 kts 324°
2026-05-06 11:47 -4.33881 118.92107 26391 ft 452 kts 324°
2026-05-06 11:47 -4.31338 118.90238 26759 ft 455 kts 324°
2026-05-06 11:48 -4.28778 118.88356 27124 ft 458 kts 324°
2026-05-06 11:48 -4.26204 118.86465 27488 ft 460 kts 324°
2026-05-06 11:48 -4.23612 118.84562 27830 ft 463 kts 323°
2026-05-06 11:48 -4.21039 118.82671 28170 ft 466 kts 323°
2026-05-06 11:49 -4.18417 118.80745 28503 ft 469 kts 323°
2026-05-06 11:49 -4.15783 118.78811 28840 ft 471 kts 323°
2026-05-06 11:49 -4.13131 118.76863 29144 ft 474 kts 323°
2026-05-06 11:49 -4.10468 118.74907 29473 ft 476 kts 323°
2026-05-06 11:50 -4.07783 118.72936 29779 ft 479 kts 323°
2026-05-06 11:50 -4.05088 118.70957 30086 ft 481 kts 323°
2026-05-06 11:50 -4.02385 118.68973 30399 ft 483 kts 323°
2026-05-06 11:50 -3.99668 118.66979 30707 ft 485 kts 323°
2026-05-06 11:51 -3.96941 118.64977 31007 ft 487 kts 323°
2026-05-06 11:51 -3.94211 118.62973 31376 ft 487 kts 323°
2026-05-06 11:51 -3.91484 118.60972 31725 ft 485 kts 323°
2026-05-06 11:51 -3.88769 118.58979 31838 ft 484 kts 323°
2026-05-06 11:52 -3.83344 118.54999 31854 ft 484 kts 323°
2026-05-06 11:52 -3.77913 118.51015 31853 ft 484 kts 323°
2026-05-06 11:53 -3.72481 118.47031 31854 ft 484 kts 323°
2026-05-06 11:53 -3.67048 118.43046 31853 ft 484 kts 324°
2026-05-06 11:54 -3.61616 118.39063 31847 ft 484 kts 323°
2026-05-06 11:54 -3.56181 118.35078 31850 ft 485 kts 324°
2026-05-06 11:55 -3.50741 118.31090 31851 ft 485 kts 324°
2026-05-06 11:55 -3.45297 118.27100 31852 ft 485 kts 324°
2026-05-06 11:56 -3.39850 118.23109 31849 ft 485 kts 324°
2026-05-06 11:56 -3.34433 118.19140 31846 ft 486 kts 323°
2026-05-06 11:57 -3.28981 118.15146 31850 ft 486 kts 323°
2026-05-06 11:57 -3.23521 118.11146 31852 ft 486 kts 323°
2026-05-06 11:58 -3.18064 118.07148 31856 ft 486 kts 324°
2026-05-06 11:58 -3.12604 118.03150 31856 ft 486 kts 323°
2026-05-06 11:59 -3.07140 117.99149 31855 ft 487 kts 323°
2026-05-06 11:59 -3.01679 117.95150 31851 ft 487 kts 323°
2026-05-06 12:00 -2.96275 117.91076 31853 ft 486 kts 320°
2026-05-06 12:00 -2.91095 117.86713 31852 ft 486 kts 320°
2026-05-06 12:01 -2.85915 117.82363 31852 ft 486 kts 320°
2026-05-06 12:01 -2.80727 117.78009 31532 ft 487 kts 320°
2026-05-06 12:02 -2.78129 117.75830 31297 ft 487 kts 320°
2026-05-06 12:02 -2.75535 117.73653 31066 ft 487 kts 319°
2026-05-06 12:02 -2.72939 117.71474 30824 ft 488 kts 319°
2026-05-06 12:02 -2.70339 117.69293 30603 ft 488 kts 319°
2026-05-06 12:03 -2.67709 117.67157 30294 ft 487 kts 323°
2026-05-06 12:03 -2.64870 117.65298 29575 ft 489 kts 330°
2026-05-06 12:03 -2.61830 117.63801 28946 ft 485 kts 337°
2026-05-06 12:03 -2.58707 117.62588 28317 ft 479 kts 339°
2026-05-06 12:04 -2.55619 117.61400 27691 ft 473 kts 339°
2026-05-06 12:04 -2.52562 117.60224 27074 ft 468 kts 340°
2026-05-06 12:04 -2.49536 117.59067 26415 ft 464 kts 340°
2026-05-06 12:04 -2.46544 117.57917 25839 ft 458 kts 340°
2026-05-06 12:05 -2.43581 117.56772 25226 ft 454 kts 340°
2026-05-06 12:05 -2.40645 117.55634 24608 ft 450 kts 340°
2026-05-06 12:05 -2.37779 117.54520 24006 ft 446 kts 340°
2026-05-06 12:05 -2.34896 117.53400 23394 ft 443 kts 340°
2026-05-06 12:06 -2.32036 117.52290 22732 ft 438 kts 340°
2026-05-06 12:06 -2.29221 117.51197 22163 ft 431 kts 340°
2026-05-06 12:06 -2.26447 117.50120 21588 ft 425 kts 340°
2026-05-06 12:06 -2.23710 117.49058 20992 ft 420 kts 340°
2026-05-06 12:07 -2.21000 117.48007 20388 ft 415 kts 340°
2026-05-06 12:07 -2.18325 117.46969 19786 ft 411 kts 340°
2026-05-06 12:07 -2.15674 117.45941 19231 ft 406 kts 340°
2026-05-06 12:07 -2.13051 117.44924 18676 ft 402 kts 340°
2026-05-06 12:08 -2.10450 117.43915 18097 ft 398 kts 340°
2026-05-06 12:08 -2.07879 117.42919 17487 ft 394 kts 340°
2026-05-06 12:08 -2.05343 117.41935 16953 ft 388 kts 340°
2026-05-06 12:08 -2.02841 117.40966 16398 ft 383 kts 340°
2026-05-06 12:09 -2.00369 117.40008 15850 ft 379 kts 340°
2026-05-06 12:09 -1.97921 117.39059 15279 ft 376 kts 340°
2026-05-06 12:09 -1.95493 117.38119 14755 ft 372 kts 340°
2026-05-06 12:09 -1.93091 117.37188 14213 ft 369 kts 340°
2026-05-06 12:10 -1.90699 117.36262 13708 ft 366 kts 340°
2026-05-06 12:10 -1.88328 117.35344 13137 ft 363 kts 340°
2026-05-06 12:10 -1.85989 117.34438 12626 ft 359 kts 340°
2026-05-06 12:10 -1.83676 117.33540 12132 ft 354 kts 340°
2026-05-06 12:11 -1.81391 117.32653 11763 ft 353 kts 340°
2026-05-06 12:11 -1.79095 117.31762 11266 ft 354 kts 340°
2026-05-06 12:11 -1.76807 117.30874 10738 ft 353 kts 340°
2026-05-06 12:11 -1.74533 117.29992 10352 ft 346 kts 340°
2026-05-06 12:12 -1.72337 117.29140 10216 ft 332 kts 340°
2026-05-06 12:12 -1.70259 117.28332 10102 ft 318 kts 340°
2026-05-06 12:12 -1.68232 117.27545 9914 ft 308 kts 340°
2026-05-06 12:12 -1.66257 117.26780 9628 ft 302 kts 340°
2026-05-06 12:13 -1.64309 117.26025 9244 ft 299 kts 340°
2026-05-06 12:13 -1.62381 117.25278 8890 ft 295 kts 340°
2026-05-06 12:13 -1.60484 117.24543 8667 ft 294 kts 340°
2026-05-06 12:13 -1.58561 117.23799 8417 ft 297 kts 340°
2026-05-06 12:14 -1.56648 117.23059 8165 ft 293 kts 340°
2026-05-06 12:14 -1.54746 117.22323 7919 ft 294 kts 340°
2026-05-06 12:14 -1.52846 117.21587 7670 ft 292 kts 340°
2026-05-06 12:14 -1.50953 117.20855 7418 ft 291 kts 340°
2026-05-06 12:15 -1.49068 117.20125 7173 ft 290 kts 340°
2026-05-06 12:15 -1.47192 117.19400 7030 ft 288 kts 340°
2026-05-06 12:15 -1.45295 117.18666 6867 ft 288 kts 340°
2026-05-06 12:16 -1.39658 117.16486 5666 ft 289 kts 339°